Time;durP1;ratioP1;P1;durP2;ratioP2;P2;SDS_P1;SDS_P2;PMS_P1;PMS_P2;Temp;Humidity;BMP_temperature;BMP_pressure;BME280_temperature;BME280_humidity;BME280_pressure;Samples;Min_cycle;Max_cycle;Signal;HPM_P1;HPM_P2
2022/10/06 00:01:03;;;;;;;9.20;5.23;;;14.70;99.90;;;;;;5090818;28;20554;-73
2022/10/06 00:03:30;;;;;;;6.00;4.80;;;14.60;99.90;;;;;;5090579;28;20517;-73
2022/10/06 00:06:00;;;;;;;7.47;5.33;;;14.60;99.90;;;;;;5090813;28;20837;-73
2022/10/06 00:08:27;;;;;;;5.13;4.63;;;14.60;99.90;;;;;;5102648;28;20509;-74
2022/10/06 00:10:55;;;;;;;8.83;5.13;;;14.50;99.90;;;;;;5096171;28;20859;-73
2022/10/06 00:13:22;;;;;;;7.50;4.40;;;14.50;99.90;;;;;;5106822;27;20531;-73
2022/10/06 00:15:49;;;;;;;7.33;4.20;;;14.50;99.90;;;;;;5107307;28;20451;-73
2022/10/06 00:18:16;;;;;;;6.20;4.50;;;14.50;99.90;;;;;;5100152;28;20446;-74
2022/10/06 00:20:42;;;;;;;5.60;4.30;;;14.50;99.90;;;;;;5105724;28;20463;-73
2022/10/06 00:23:11;;;;;;;9.60;4.73;;;14.50;99.90;;;;;;5106972;28;20932;-73
2022/10/06 00:25:38;;;;;;;7.33;4.23;;;14.50;99.90;;;;;;5106578;28;20459;-73
2022/10/06 00:28:05;;;;;;;10.90;4.43;;;14.60;99.90;;;;;;5101604;28;20447;-73
2022/10/06 00:30:32;;;;;;;6.83;4.30;;;14.60;99.90;;;;;;5108507;28;20573;-73
2022/10/06 00:33:01;;;;;;;7.10;4.90;;;14.50;99.90;;;;;;5095155;28;20456;-73
2022/10/06 00:35:32;;;;;;;5.83;4.63;;;14.50;99.90;;;;;;5107590;28;20536;-74
2022/10/06 00:37:59;;;;;;;6.77;4.77;;;14.40;99.90;;;;;;5108219;28;20462;-73
2022/10/06 00:40:27;;;;;;;5.37;4.87;;;14.40;99.90;;;;;;5103448;28;20470;-73
2022/10/06 00:42:57;;;;;;;9.50;4.63;;;14.30;99.90;;;;;;5100889;28;20439;-74
2022/10/06 00:45:29;;;;;;;12.47;5.33;;;14.30;99.90;;;;;;5102561;28;20470;-73
2022/10/06 00:48:00;;;;;;;7.60;4.67;;;14.20;99.90;;;;;;5110635;28;20455;-74
2022/10/06 00:50:28;;;;;;;4.90;4.50;;;14.20;99.90;;;;;;5090219;28;20483;-74
2022/10/06 00:52:55;;;;;;;9.07;4.53;;;14.10;99.90;;;;;;5090344;28;20444;-74
2022/10/06 00:55:22;;;;;;;7.97;4.70;;;14.10;99.90;;;;;;5090266;28;20546;-74
2022/10/06 00:57:51;;;;;;;6.23;4.93;;;14.10;99.90;;;;;;5089622;28;20448;-74
2022/10/06 01:00:19;;;;;;;14.20;5.53;;;14.10;99.90;;;;;;5090039;28;20512;-74
2022/10/06 01:02:50;;;;;;;7.67;5.07;;;14.20;99.90;;;;;;5090589;28;20455;-74
2022/10/06 01:05:23;;;;;;;6.60;4.80;;;14.20;99.90;;;;;;5094337;28;20467;-74
2022/10/06 01:07:50;;;;;;;8.10;4.70;;;14.20;99.90;;;;;;5093822;28;20448;-74
2022/10/06 01:10:17;;;;;;;11.43;4.63;;;14.30;99.90;;;;;;5100314;28;20499;-74
2022/10/06 01:12:43;;;;;;;7.63;4.37;;;14.40;99.90;;;;;;5108116;28;20869;-73
2022/10/06 01:15:12;;;;;;;7.03;4.80;;;14.40;99.90;;;;;;5106385;28;20451;-73
2022/10/06 01:17:44;;;;;;;14.17;4.40;;;14.50;99.90;;;;;;5106798;28;20891;-73
2022/10/06 01:20:15;;;;;;;11.00;4.30;;;14.60;99.90;;;;;;5095028;28;20455;-74
2022/10/06 01:22:46;;;;;;;12.37;4.50;;;14.70;99.90;;;;;;5097213;28;20470;-74
2022/10/06 01:25:16;;;;;;;12.10;4.30;;;14.90;99.90;;;;;;5110309;28;20465;-73
2022/10/06 01:27:45;;;;;;;9.43;3.77;;;15.00;99.90;;;;;;5108842;28;20451;-74
2022/10/06 01:30:16;;;;;;;5.17;3.10;;;15.30;99.90;;;;;;5112095;28;20462;-74
2022/10/06 01:32:44;;;;;;;9.03;2.73;;;15.60;99.90;;;;;;5100627;28;20447;-74
2022/10/06 01:35:11;;;;;;;12.30;2.63;;;15.70;99.90;;;;;;5109234;28;20454;-74
2022/10/06 01:37:38;;;;;;;19.90;2.50;;;15.70;99.90;;;;;;5097235;28;20452;-74
2022/10/06 01:40:07;;;;;;;9.37;2.93;;;15.80;99.90;;;;;;5098851;28;20446;-74
2022/10/06 01:42:34;;;;;;;3.50;2.93;;;15.70;99.90;;;;;;5096763;28;20451;-74
2022/10/06 01:45:01;;;;;;;6.80;2.30;;;15.70;99.90;;;;;;5096772;28;20995;-73
2022/10/06 01:47:28;;;;;;;2.70;2.03;;;15.70;99.90;;;;;;5112374;27;20433;-74
2022/10/06 01:49:55;;;;;;;5.63;2.30;;;15.70;99.90;;;;;;5112118;28;20492;-74
2022/10/06 01:52:22;;;;;;;2.03;1.83;;;15.70;99.90;;;;;;5101639;28;20468;-73
2022/10/06 01:54:49;;;;;;;5.00;2.00;;;15.60;99.90;;;;;;5096763;28;20450;-73
2022/10/06 01:57:17;;;;;;;3.27;1.73;;;15.50;99.90;;;;;;5097414;28;20426;-74
2022/10/06 01:59:43;;;;;;;3.60;1.70;;;15.50;99.90;;;;;;5099479;28;20473;-74
2022/10/06 02:02:10;;;;;;;2.40;1.53;;;15.40;99.90;;;;;;5107288;28;20836;-73
2022/10/06 02:04:37;;;;;;;4.50;1.67;;;15.30;99.90;;;;;;5102537;28;20455;-74
2022/10/06 02:07:04;;;;;;;15.33;2.43;;;15.30;99.90;;;;;;5096623;28;20422;-74
2022/10/06 02:09:31;;;;;;;1.90;1.60;;;15.20;99.90;;;;;;5104744;28;20465;-74
2022/10/06 02:11:57;;;;;;;4.63;1.70;;;15.10;99.90;;;;;;5110268;28;20481;-74
2022/10/06 02:14:25;;;;;;;2.73;1.53;;;15.10;99.90;;;;;;5097661;28;20473;-74
2022/10/06 02:16:52;;;;;;;1.50;1.40;;;15.00;99.90;;;;;;5097423;28;20454;-73
2022/10/06 02:19:19;;;;;;;2.13;1.40;;;15.00;99.90;;;;;;5102899;28;20451;-73
2022/10/06 02:21:45;;;;;;;4.97;1.47;;;14.90;99.90;;;;;;5095437;28;20874;-74
2022/10/06 02:24:12;;;;;;;4.93;1.63;;;14.90;99.90;;;;;;5102018;28;20474;-74
2022/10/06 02:26:39;;;;;;;2.47;1.40;;;14.80;99.90;;;;;;5095558;28;20448;-74
2022/10/06 02:29:06;;;;;;;3.50;1.30;;;14.80;99.90;;;;;;5098446;28;20470;-74
2022/10/06 02:31:34;;;;;;;2.70;1.30;;;14.80;99.90;;;;;;5094510;28;20487;-74
2022/10/06 02:34:01;;;;;;;3.20;1.33;;;14.80;99.90;;;;;;5107156;28;20496;-74
2022/10/06 02:36:28;;;;;;;6.90;1.63;;;14.80;99.90;;;;;;5109306;28;20797;-74
2022/10/06 02:38:55;;;;;;;4.60;1.73;;;14.70;99.90;;;;;;5103199;28;20459;-74
2022/10/06 02:41:21;;;;;;;2.57;1.47;;;14.70;99.90;;;;;;5095973;28;20474;-74
2022/10/06 02:43:48;;;;;;;1.40;1.30;;;14.60;99.90;;;;;;5105911;28;20443;-74
2022/10/06 02:46:15;;;;;;;1.93;1.43;;;14.60;99.90;;;;;;5098251;28;20828;-74
2022/10/06 02:48:43;;;;;;;7.00;1.87;;;14.50;99.90;;;;;;5101490;28;20443;-74
2022/10/06 02:51:12;;;;;;;2.47;1.63;;;14.40;99.90;;;;;;5096925;28;20835;-72
2022/10/06 02:53:39;;;;;;;7.13;1.60;;;14.30;99.90;;;;;;5095168;28;20451;-73
2022/10/06 02:56:11;;;;;;;2.63;1.50;;;14.30;99.90;;;;;;5096703;28;20534;-73
2022/10/06 02:58:39;;;;;;;4.80;1.77;;;14.20;99.90;;;;;;5098553;28;20446;-74
2022/10/06 03:01:08;;;;;;;3.63;1.70;;;14.20;99.90;;;;;;5107010;27;20474;-74
2022/10/06 03:03:35;;;;;;;2.23;1.40;;;14.10;99.90;;;;;;5098602;28;20443;-73
2022/10/06 03:06:05;;;;;;;2.20;1.50;;;14.10;99.90;;;;;;5109471;28;20455;-73
2022/10/06 03:08:32;;;;;;;4.50;1.70;;;14.10;99.90;;;;;;5091561;28;20873;-74
2022/10/06 03:11:01;;;;;;;3.73;1.53;;;14.10;99.90;;;;;;5091306;28;21007;-74
2022/10/06 03:13:28;;;;;;;3.70;1.70;;;14.00;99.90;;;;;;5091582;28;20487;-73
2022/10/06 03:15:55;;;;;;;2.57;1.67;;;14.00;99.90;;;;;;5091773;28;20854;-74
2022/10/06 03:18:22;;;;;;;10.47;1.83;;;14.00;99.90;;;;;;5091580;28;20448;-74
2022/10/06 03:20:49;;;;;;;4.50;1.60;;;14.00;99.90;;;;;;5091475;28;20562;-73
2022/10/06 03:23:17;;;;;;;7.17;1.60;;;14.00;99.90;;;;;;5094501;28;20452;-74
2022/10/06 03:25:43;;;;;;;3.20;1.50;;;14.00;99.90;;;;;;5095638;28;20456;-73
2022/10/06 03:28:10;;;;;;;2.80;1.67;;;14.00;99.90;;;;;;5096690;28;20454;-74
2022/10/06 03:30:37;;;;;;;3.63;1.87;;;14.00;99.90;;;;;;5094372;28;20525;-73
2022/10/06 03:33:03;;;;;;;5.40;1.67;;;14.00;99.90;;;;;;5094672;28;20490;-73
2022/10/06 03:35:30;;;;;;;2.10;1.40;;;14.00;99.90;;;;;;5095349;28;20458;-74
2022/10/06 03:37:59;;;;;;;6.27;1.60;;;14.00;99.90;;;;;;5094883;28;20451;-74
2022/10/06 03:40:27;;;;;;;2.53;1.60;;;13.90;99.90;;;;;;5091122;28;20475;-74
2022/10/06 03:42:53;;;;;;;1.80;1.60;;;13.90;99.90;;;;;;5090434;28;20509;-73
2022/10/06 03:45:20;;;;;;;5.17;1.80;;;13.90;99.90;;;;;;5091372;28;20878;-74
2022/10/06 03:47:47;;;;;;;2.70;1.67;;;13.90;99.90;;;;;;5092041;28;20866;-73
2022/10/06 03:50:13;;;;;;;4.00;2.00;;;13.90;99.90;;;;;;5106700;28;20450;-73
2022/10/06 03:52:40;;;;;;;2.43;1.80;;;13.90;99.90;;;;;;5105383;28;20474;-74
2022/10/06 03:55:07;;;;;;;6.60;2.83;;;13.90;99.90;;;;;;5107923;27;20443;-73
2022/10/06 03:57:35;;;;;;;3.13;1.60;;;13.90;99.90;;;;;;5108413;28;20454;-73
2022/10/06 04:00:02;;;;;;;7.80;1.80;;;13.90;99.90;;;;;;5096627;28;20829;-74
2022/10/06 04:02:29;;;;;;;2.30;1.60;;;13.90;99.90;;;;;;5102768;28;20496;-74
2022/10/06 04:04:56;;;;;;;2.27;1.50;;;13.90;99.90;;;;;;5108942;28;20546;-73
2022/10/06 04:07:22;;;;;;;3.97;1.77;;;13.90;99.90;;;;;;5104274;28;20455;-73
2022/10/06 04:09:49;;;;;;;5.73;2.57;;;13.90;99.90;;;;;;5097624;28;20454;-73
2022/10/06 04:12:16;;;;;;;3.73;2.10;;;13.90;99.90;;;;;;5095646;28;20479;-73
2022/10/06 04:14:44;;;;;;;3.20;1.93;;;13.90;99.90;;;;;;5097626;28;20542;-73
2022/10/06 04:17:10;;;;;;;2.80;1.60;;;13.80;99.90;;;;;;5107361;28;20454;-74
2022/10/06 04:19:37;;;;;;;3.70;2.20;;;13.80;99.90;;;;;;5098606;28;20450;-73
2022/10/06 04:22:04;;;;;;;5.53;1.70;;;13.80;99.90;;;;;;5094642;28;20984;-74
2022/10/06 04:24:30;;;;;;;3.43;1.67;;;13.70;99.90;;;;;;5102434;28;20450;-74
2022/10/06 04:27:26;;;;;;;2.00;1.53;;;13.70;99.90;;;;;;5096918;28;20449;-74
2022/10/06 04:29:45;;;;;;;3.30;1.90;;;13.60;99.90;;;;;;5101337;28;20437;-74
2022/10/06 04:32:13;;;;;;;3.67;1.70;;;13.50;99.90;;;;;;5094598;28;20487;-74
2022/10/06 04:34:40;;;;;;;7.30;1.97;;;13.50;99.90;;;;;;5093947;28;20452;-74
2022/10/06 04:37:06;;;;;;;6.70;2.10;;;13.40;99.90;;;;;;5106413;28;20450;-73
2022/10/06 04:39:33;;;;;;;4.37;1.93;;;13.40;99.90;;;;;;5100306;28;20447;-73
2022/10/06 04:42:01;;;;;;;6.97;1.90;;;13.30;99.90;;;;;;5093080;28;20813;-73
2022/10/06 04:44:28;;;;;;;3.90;1.93;;;13.30;99.90;;;;;;5107440;28;20513;-73
2022/10/06 04:46:56;;;;;;;7.13;2.00;;;13.20;99.90;;;;;;5108503;28;20451;-74
2022/10/06 04:49:23;;;;;;;3.30;1.70;;;13.20;99.90;;;;;;5095607;28;20458;-73
2022/10/06 04:51:50;;;;;;;2.43;1.93;;;13.20;99.90;;;;;;5099011;28;20481;-73
2022/10/06 04:54:17;;;;;;;3.73;1.97;;;13.10;99.90;;;;;;5101992;28;20462;-74
2022/10/06 04:56:44;;;;;;;13.23;2.30;;;13.10;99.90;;;;;;5112420;28;20458;-73
2022/10/06 04:59:10;;;;;;;5.03;2.20;;;13.10;99.90;;;;;;5106424;27;20492;-73
2022/10/06 05:01:37;;;;;;;5.47;2.43;;;13.10;99.90;;;;;;5097280;28;20525;-77
2022/10/06 05:04:06;;;;;;;4.40;1.90;;;13.10;99.90;;;;;;5099422;28;20458;-79
2022/10/06 05:06:35;;;;;;;7.90;1.83;;;13.10;99.90;;;;;;5104081;28;20466;-79
2022/10/06 05:09:03;;;;;;;6.20;2.20;;;13.00;99.90;;;;;;5104512;28;20971;-79
2022/10/06 05:11:32;;;;;;;7.17;2.03;;;13.00;99.90;;;;;;5112096;28;20477;-79
2022/10/06 05:13:59;;;;;;;9.00;2.30;;;13.00;99.90;;;;;;5114029;28;20477;-79
2022/10/06 05:16:28;;;;;;;6.50;2.43;;;13.00;99.90;;;;;;5113377;27;20443;-78
2022/10/06 05:18:55;;;;;;;8.00;2.60;;;12.90;99.90;;;;;;5114133;27;20449;-80
2022/10/06 05:21:25;;;;;;;8.13;2.50;;;12.90;99.90;;;;;;5113898;28;20465;-79
2022/10/06 05:23:51;;;;;;;9.20;2.40;;;12.90;99.90;;;;;;5114604;27;20973;-79
2022/10/06 05:26:20;;;;;;;6.73;2.17;;;12.80;99.90;;;;;;5114988;28;20439;-79
2022/10/06 05:28:47;;;;;;;11.97;2.40;;;12.80;99.90;;;;;;5114994;27;20466;-79
2022/10/06 05:31:15;;;;;;;7.40;2.40;;;12.80;99.90;;;;;;5114777;27;20472;-79
2022/10/06 05:33:42;;;;;;;6.27;2.57;;;12.80;99.90;;;;;;5114386;28;20496;-79
2022/10/06 05:36:12;;;;;;;4.30;2.40;;;12.80;99.90;;;;;;5114951;28;20884;-78
2022/10/06 05:38:40;;;;;;;5.97;2.70;;;12.80;99.90;;;;;;5114866;28;20449;-80
2022/10/06 05:41:10;;;;;;;10.90;2.37;;;12.70;99.90;;;;;;5114875;28;20470;-80
2022/10/06 05:43:37;;;;;;;4.93;2.30;;;12.70;99.90;;;;;;5114931;28;20838;-80
2022/10/06 05:46:06;;;;;;;10.27;2.97;;;12.60;99.90;;;;;;5111132;28;20454;-79
2022/10/06 05:48:34;;;;;;;9.90;2.77;;;12.60;99.90;;;;;;5125196;27;20453;-79
2022/10/06 05:51:01;;;;;;;4.50;2.60;;;12.60;99.90;;;;;;5096549;28;20474;-78
2022/10/06 05:53:29;;;;;;;8.87;2.87;;;12.50;99.90;;;;;;5114752;28;20879;-79
2022/10/06 05:56:06;;;;;;;9.93;2.80;;;12.50;99.90;;;;;;5114438;27;20460;-79
2022/10/06 05:58:34;;;;;;;5.33;2.50;;;12.50;99.90;;;;;;5114413;28;20454;-79
2022/10/06 06:01:11;;;;;;;6.30;2.40;;;12.50;99.90;;;;;;5114269;28;20462;-78
2022/10/06 06:03:39;;;;;;;6.50;2.83;;;12.50;99.90;;;;;;5109917;28;20443;-79
2022/10/06 06:06:15;;;;;;;11.80;2.60;;;12.50;99.90;;;;;;5113420;27;20453;-79
2022/10/06 06:08:42;;;;;;;16.93;3.40;;;12.50;99.90;;;;;;5112871;28;20481;-79
2022/10/06 06:11:10;;;;;;;9.60;2.63;;;12.50;99.90;;;;;;5097298;28;20987;-78
2022/10/06 06:13:37;;;;;;;4.20;2.80;;;12.60;99.90;;;;;;5114261;28;21015;-79
2022/10/06 06:16:05;;;;;;;14.67;3.37;;;12.70;99.90;;;;;;5114385;28;20457;-78
2022/10/06 06:18:33;;;;;;;10.30;2.60;;;12.90;99.90;;;;;;5098171;28;20455;-78
2022/10/06 06:21:02;;;;;;;9.13;2.43;;;13.30;99.90;;;;;;5094324;28;20519;-79
2022/10/06 06:23:32;;;;;;;14.77;2.50;;;13.80;99.90;;;;;;5109724;28;20472;-79
2022/10/06 06:26:00;;;;;;;7.43;2.40;;;14.30;99.90;;;;;;5113343;28;20780;-79
2022/10/06 06:28:29;;;;;;;11.03;3.07;;;14.80;99.90;;;;;;5111681;28;20455;-79
2022/10/06 06:31:01;;;;;;;12.53;2.13;;;15.30;99.90;;;;;;5102327;28;20489;-79
2022/10/06 06:33:28;;;;;;;13.53;2.87;;;15.80;99.90;;;;;;5098375;28;20487;-79
2022/10/06 06:35:54;;;;;;;15.63;2.70;;;16.30;99.90;;;;;;5093571;28;20447;-78
2022/10/06 06:38:21;;;;;;;10.13;2.57;;;16.60;99.90;;;;;;5093702;28;20803;-78
2022/10/06 06:40:48;;;;;;;8.53;2.50;;;16.60;99.90;;;;;;5093191;28;20886;-79
2022/10/06 06:43:14;;;;;;;6.90;2.20;;;16.10;99.90;;;;;;5093547;28;20455;-79
2022/10/06 06:45:42;;;;;;;12.10;2.63;;;15.60;99.90;;;;;;5093179;28;20512;-79
2022/10/06 06:48:14;;;;;;;9.50;2.50;;;15.30;99.90;;;;;;5113773;27;20510;-79
2022/10/06 06:50:41;;;;;;;5.67;2.30;;;15.20;99.90;;;;;;5099062;27;20476;-79
2022/10/06 06:53:07;;;;;;;9.20;2.90;;;15.90;99.90;;;;;;5102422;28;20591;-77
2022/10/06 06:55:34;;;;;;;8.73;3.07;;;16.70;99.90;;;;;;5095211;28;20920;-76
2022/10/06 06:58:01;;;;;;;9.10;2.77;;;17.40;99.90;;;;;;5094100;28;20525;-76
2022/10/06 07:00:27;;;;;;;8.23;2.70;;;18.10;99.90;;;;;;5093011;28;20503;-75
2022/10/06 07:02:59;;;;;;;6.90;2.93;;;18.60;99.90;;;;;;5099092;28;20454;-75
2022/10/06 07:05:26;;;;;;;11.73;3.00;;;18.60;99.90;;;;;;5103478;28;20540;-75
2022/10/06 07:07:52;;;;;;;7.80;2.80;;;18.70;99.90;;;;;;5104350;28;20455;-74
2022/10/06 07:10:19;;;;;;;14.60;3.57;;;18.80;99.90;;;;;;5092842;28;20438;-76
2022/10/06 07:12:46;;;;;;;13.03;3.67;;;19.10;99.90;;;;;;5107648;28;20852;-75
2022/10/06 07:26:10;;;;;;;13.37;3.97;;;20.40;99.90;;;;;;5092507;28;20441;-76
2022/10/06 07:28:37;;;;;;;12.73;3.20;;;20.50;99.90;;;;;;5092590;28;20907;-75
2022/10/06 07:31:04;;;;;;;16.33;3.37;;;20.70;99.90;;;;;;5092391;28;20457;-75
2022/10/06 07:33:32;;;;;;;12.27;2.70;;;20.80;99.90;;;;;;5112816;28;20461;-75
2022/10/06 07:35:59;;;;;;;11.00;3.00;;;20.70;99.90;;;;;;5112721;28;20428;-75
2022/10/06 07:38:26;;;;;;;9.90;3.27;;;20.10;99.90;;;;;;5097839;27;20426;-75
2022/10/06 07:40:57;;;;;;;13.90;2.80;;;20.00;99.90;;;;;;5091878;28;20499;-76
2022/10/06 07:43:24;;;;;;;11.17;2.70;;;19.70;99.90;;;;;;5093452;28;20469;-76
2022/10/06 07:45:50;;;;;;;7.10;2.50;;;19.50;99.90;;;;;;5092189;28;20532;-75
2022/10/06 07:48:19;;;;;;;11.70;3.00;;;18.90;99.90;;;;;;5113520;27;20427;-75
2022/10/06 07:50:48;;;;;;;10.70;3.30;;;18.60;99.90;;;;;;5097079;27;20450;-75
2022/10/06 07:53:16;;;;;;;11.47;3.03;;;18.40;99.90;;;;;;5107672;28;20544;-74
2022/10/06 07:55:45;;;;;;;9.87;2.70;;;18.30;99.90;;;;;;5092036;28;20429;-75
2022/10/06 07:58:13;;;;;;;9.17;2.87;;;18.40;99.90;;;;;;5093105;28;20432;-75
2022/10/06 08:00:39;;;;;;;9.67;3.17;;;18.60;99.90;;;;;;5095980;28;20445;-75
2022/10/06 08:03:06;;;;;;;13.20;3.03;;;18.70;99.90;;;;;;5112090;28;20499;-75
2022/10/06 08:05:33;;;;;;;11.40;3.10;;;18.70;99.90;;;;;;5101580;28;20950;-74
2022/10/06 08:08:01;;;;;;;12.33;2.67;;;18.70;99.90;;;;;;5092199;28;20537;-75
2022/10/06 08:10:28;;;;;;;8.33;2.60;;;18.80;99.90;;;;;;5093343;28;20472;-75
2022/10/06 08:12:54;;;;;;;10.77;2.93;;;19.00;99.90;;;;;;5098107;28;20479;-75
2022/10/06 08:15:21;;;;;;;12.67;3.17;;;18.80;99.90;;;;;;5091236;28;20451;-76
2022/10/06 08:17:48;;;;;;;11.83;2.60;;;18.70;99.90;;;;;;5091962;28;20835;-75
2022/10/06 08:20:16;;;;;;;8.20;2.67;;;18.50;99.90;;;;;;5108854;28;20454;-74
2022/10/06 08:22:44;;;;;;;12.17;3.10;;;18.50;99.90;;;;;;5091332;28;20426;-73
2022/10/06 08:25:12;;;;;;;11.30;2.80;;;18.60;99.90;;;;;;5091680;28;20510;-73
2022/10/06 08:27:42;;;;;;;10.77;3.30;;;18.40;99.90;;;;;;5104989;28;20428;-75
2022/10/06 08:30:11;;;;;;;10.83;2.40;;;18.30;99.90;;;;;;5091157;28;20434;-74
2022/10/06 08:32:37;;;;;;;11.83;3.37;;;18.10;99.90;;;;;;5101199;28;20450;-74
2022/10/06 08:35:05;;;;;;;13.53;2.97;;;18.50;99.90;;;;;;5100778;28;20433;-74
2022/10/06 08:37:31;;;;;;;21.90;3.33;;;18.80;99.90;;;;;;5091113;28;20418;-74
2022/10/06 08:39:58;;;;;;;14.10;2.60;;;18.70;99.90;;;;;;5099259;28;20428;-73
2022/10/06 08:42:40;;;;;;;15.20;3.13;;;19.00;99.90;;;;;;5098338;28;20452;-75
2022/10/06 08:45:13;;;;;;;11.97;2.63;;;19.50;99.90;;;;;;5108478;28;20433;-76
2022/10/06 08:47:50;;;;;;;9.90;2.70;;;19.50;99.90;;;;;;5102772;28;20484;-74
2022/10/06 08:50:20;;;;;;;17.67;3.63;;;19.90;99.90;;;;;;5100813;27;20455;-75
2022/10/06 08:52:55;;;;;;;7.00;2.47;;;20.10;99.90;;;;;;5094324;28;20462;-77
2022/10/06 08:55:38;;;;;;;8.50;2.80;;;20.30;99.90;;;;;;5090661;28;20528;-75
2022/10/06 08:58:22;;;;;;;8.77;3.27;;;20.70;99.90;;;;;;5102595;28;20458;-76
2022/10/06 09:00:49;;;;;;;16.73;3.57;;;20.80;99.90;;;;;;5093755;28;20546;-75
2022/10/06 09:03:22;;;;;;;9.57;2.60;;;20.40;99.90;;;;;;5109007;28;20838;-76
2022/10/06 09:05:51;;;;;;;10.57;2.53;;;19.90;99.90;;;;;;5108903;28;20458;-75
2022/10/06 09:08:34;;;;;;;12.77;2.40;;;19.90;99.90;;;;;;5097281;28;20959;-74
2022/10/06 09:11:14;;;;;;;7.47;2.40;;;19.20;99.90;;;;;;5096708;28;20826;-76
2022/10/06 09:13:51;;;;;;;11.63;2.83;;;18.70;99.90;;;;;;5091772;28;20483;-75
2022/10/06 09:16:21;;;;;;;8.63;2.97;;;18.30;99.90;;;;;;5090408;28;20923;-75
2022/10/06 09:18:53;;;;;;;17.70;2.87;;;18.50;99.90;;;;;;5091485;28;20847;-75
2022/10/06 09:21:29;;;;;;;9.83;2.97;;;18.70;99.90;;;;;;5089772;28;20995;-73
2022/10/06 09:24:01;;;;;;;6.90;2.00;;;19.10;99.90;;;;;;5104597;28;20528;-73
2022/10/06 09:26:30;;;;;;;7.63;2.57;;;19.50;99.90;;;;;;5100920;28;20425;-73
2022/10/06 09:28:59;;;;;;;11.20;3.30;;;19.90;99.90;;;;;;5110773;28;20450;-73
2022/10/06 09:31:28;;;;;;;17.47;2.90;;;19.80;99.90;;;;;;5108334;28;20474;-74
2022/10/06 09:34:00;;;;;;;8.63;3.00;;;19.90;99.90;;;;;;5091872;28;20536;-75
2022/10/06 09:36:27;;;;;;;11.33;2.80;;;19.80;99.90;;;;;;5090282;28;20459;-75
2022/10/06 09:38:55;;;;;;;10.87;2.60;;;19.80;99.90;;;;;;5090459;28;20489;-76
2022/10/06 09:41:26;;;;;;;7.70;2.67;;;20.00;99.90;;;;;;5104186;28;20481;-74
2022/10/06 09:43:57;;;;;;;12.03;3.00;;;20.10;99.90;;;;;;5112472;28;20823;-73
2022/10/06 09:46:30;;;;;;;11.30;2.83;;;20.10;99.90;;;;;;5112509;27;20553;-73
2022/10/06 09:49:17;;;;;;;9.83;2.67;;;20.20;99.90;;;;;;5130716;27;20539;-73
2022/10/06 09:52:02;;;;;;;6.63;2.17;;;20.10;99.90;;;;;;5116673;27;20562;-72
2022/10/06 09:54:30;;;;;;;11.30;2.40;;;19.60;99.90;;;;;;5098737;28;21045;-73
2022/10/06 09:56:58;;;;;;;15.07;2.90;;;19.30;99.90;;;;;;5095711;27;20452;-73
2022/10/06 09:59:30;;;;;;;13.93;2.20;;;19.20;99.90;;;;;;5093778;28;20417;-73
2022/10/06 10:01:59;;;;;;;10.73;2.77;;;19.10;99.90;;;;;;5097392;28;20478;-73
2022/10/06 10:04:29;;;;;;;14.83;2.60;;;19.30;99.90;;;;;;5114239;27;20507;-74
2022/10/06 10:07:13;;;;;;;7.73;2.70;;;19.60;99.90;;;;;;5114009;28;20841;-74
2022/10/06 10:09:40;;;;;;;16.13;3.07;;;19.80;99.90;;;;;;5114011;28;20478;-74
2022/10/06 10:12:26;;;;;;;8.50;2.53;;;20.10;99.90;;;;;;5112323;27;20536;-74
2022/10/06 10:14:56;;;;;;;11.47;2.33;;;19.90;99.90;;;;;;5114114;27;20495;-74
2022/10/06 10:17:42;;;;;;;8.70;2.77;;;19.80;99.90;;;;;;5113873;28;20447;-75
2022/10/06 10:20:27;;;;;;;12.20;3.40;;;20.10;99.90;;;;;;5113745;27;20457;-75
2022/10/06 10:22:54;;;;;;;7.63;2.30;;;20.40;99.90;;;;;;5104152;28;20956;-74
2022/10/06 10:26:01;;;;;;;10.27;2.47;;;20.40;99.90;;;;;;5093439;28;20482;-74
2022/10/06 10:29:07;;;;;;;11.70;2.47;;;20.70;99.90;;;;;;5075397;28;20462;-75
2022/10/06 10:31:46;;;;;;;8.87;2.23;;;20.90;99.90;;;;;;5097347;27;20488;-74
2022/10/06 10:34:24;;;;;;;9.53;2.50;;;20.50;99.90;;;;;;5107701;28;20566;-74
2022/10/06 10:36:55;;;;;;;15.17;2.90;;;20.80;99.90;;;;;;5113264;28;20944;-74
2022/10/06 10:39:30;;;;;;;6.73;2.20;;;21.10;99.90;;;;;;5113252;27;20495;-74
2022/10/06 10:42:02;;;;;;;8.20;2.07;;;21.30;99.90;;;;;;5112514;27;20473;-74
2022/10/06 10:44:34;;;;;;;7.77;2.47;;;21.70;99.90;;;;;;5109930;28;20452;-74
2022/10/06 10:47:13;;;;;;;6.10;2.00;;;21.90;99.90;;;;;;5099036;28;20469;-73
2022/10/06 10:49:45;;;;;;;10.67;2.20;;;21.70;99.90;;;;;;5092489;28;20859;-74
2022/10/06 10:52:17;;;;;;;12.63;3.20;;;21.20;99.90;;;;;;5091917;28;20475;-75
2022/10/06 10:54:46;;;;;;;7.20;1.90;;;20.70;99.90;;;;;;5092771;28;20486;-74
2022/10/06 10:57:16;;;;;;;5.90;2.20;;;20.60;99.90;;;;;;5092540;28;20452;-74
2022/10/06 10:59:53;;;;;;;8.60;1.97;;;20.30;99.90;;;;;;5103048;28;20812;-76
2022/10/06 11:02:22;;;;;;;4.97;2.30;;;20.20;99.90;;;;;;5111756;28;20470;-75
2022/10/06 11:04:53;;;;;;;8.17;2.63;;;20.60;99.90;;;;;;5106955;28;20452;-75
2022/10/06 11:07:23;;;;;;;8.10;1.90;;;20.90;99.90;;;;;;5100133;28;20451;-75
2022/10/06 11:09:59;;;;;;;6.30;2.17;;;21.10;99.90;;;;;;5111099;28;20454;-74
2022/10/06 11:12:39;;;;;;;7.50;2.27;;;20.90;99.90;;;;;;5107745;28;20637;-75
2022/10/06 11:15:17;;;;;;;10.27;1.73;;;21.10;99.90;;;;;;5092292;28;20490;-75
2022/10/06 11:17:48;;;;;;;7.17;2.10;;;21.60;99.90;;;;;;5092237;28;20467;-75
2022/10/06 11:20:32;;;;;;;11.53;2.00;;;22.00;99.90;;;;;;5092181;28;20462;-74
2022/10/06 11:23:08;;;;;;;17.33;2.00;;;22.10;99.90;;;;;;5093765;28;20448;-74
2022/10/06 11:25:44;;;;;;;7.53;2.13;;;22.20;99.90;;;;;;5092288;28;20442;-75
2022/10/06 11:28:18;;;;;;;8.23;2.53;;;21.90;99.90;;;;;;5107044;28;20458;-75
2022/10/06 11:30:57;;;;;;;6.07;2.27;;;21.30;99.90;;;;;;5111464;28;20486;-75
2022/10/06 11:33:31;;;;;;;6.73;2.40;;;21.40;99.90;;;;;;5111523;28;20810;-75
2022/10/06 11:36:01;;;;;;;18.00;2.00;;;21.40;99.90;;;;;;5108255;28;20452;-75
2022/10/06 11:38:35;;;;;;;7.53;1.90;;;21.40;99.90;;;;;;5092600;28;20455;-75
2022/10/06 11:41:12;;;;;;;7.73;2.07;;;21.20;99.90;;;;;;5091588;28;20463;-75
2022/10/06 11:43:47;;;;;;;8.40;2.07;;;21.70;99.90;;;;;;5105655;28;20476;-75
2022/10/06 11:46:35;;;;;;;5.37;2.00;;;22.20;99.90;;;;;;5112210;27;20492;-75
2022/10/06 11:49:37;;;;;;;9.60;2.10;;;22.30;99.90;;;;;;5125239;27;20445;-75
2022/10/06 11:52:43;;;;;;;6.97;2.00;;;22.50;99.90;;;;;;5123714;27;20849;-75
2022/10/06 11:55:16;;;;;;;8.90;2.13;;;22.70;99.90;;;;;;5091680;28;20936;-76
2022/10/06 11:58:06;;;;;;;6.90;1.87;;;22.60;99.90;;;;;;5091532;28;20470;-76
2022/10/06 12:00:49;;;;;;;5.33;1.80;;;22.70;99.90;;;;;;5090881;28;20468;-76
2022/10/06 12:03:45;;;;;;;4.00;1.90;;;22.90;99.90;;;;;;5101262;28;20496;-73
2022/10/06 12:06:45;;;;;;;6.50;1.90;;;23.30;99.90;;;;;;5101702;28;20518;-74
2022/10/06 12:09:29;;;;;;;6.90;2.00;;;23.60;99.90;;;;;;5091164;28;21056;-74
2022/10/06 12:11:57;;;;;;;5.40;1.93;;;23.40;99.90;;;;;;5091135;28;20467;-74
2022/10/06 12:14:35;;;;;;;3.73;1.57;;;23.10;99.90;;;;;;5091189;28;20520;-74
2022/10/06 12:17:07;;;;;;;6.40;2.67;;;22.70;99.90;;;;;;5091145;28;20455;-74
2022/10/06 12:19:48;;;;;;;3.33;1.80;;;22.40;99.90;;;;;;5091386;28;20516;-74
2022/10/06 12:22:21;;;;;;;5.70;1.80;;;22.10;99.90;;;;;;5093789;28;21033;-74
2022/10/06 12:24:58;;;;;;;5.33;1.47;;;22.10;99.90;;;;;;5091091;28;20483;-73
2022/10/06 12:27:33;;;;;;;4.60;1.87;;;22.20;99.90;;;;;;5097800;28;20446;-73
2022/10/06 12:30:06;;;;;;;14.30;2.00;;;22.20;99.90;;;;;;5111418;28;20543;-73
2022/10/06 12:32:45;;;;;;;8.43;2.10;;;22.10;99.90;;;;;;5110573;28;20447;-73
2022/10/06 12:35:22;;;;;;;4.53;1.77;;;21.80;99.90;;;;;;5111308;28;20501;-73
2022/10/06 12:37:51;;;;;;;3.97;1.73;;;21.60;99.90;;;;;;5109472;28;20963;-73
2022/10/06 12:40:46;;;;;;;6.47;1.80;;;21.50;99.90;;;;;;5110809;28;21178;-73
2022/10/06 12:43:55;;;;;;;7.37;1.83;;;22.00;99.90;;;;;;5110682;28;20459;-72
2022/10/06 12:46:44;;;;;;;5.27;1.83;;;22.30;99.90;;;;;;5103486;28;20490;-73
2022/10/06 12:49:30;;;;;;;6.20;1.63;;;22.70;99.90;;;;;;5093447;28;20452;-72
2022/10/06 12:51:58;;;;;;;10.10;1.80;;;23.20;99.90;;;;;;5111418;28;21017;-72
2022/10/06 12:54:33;;;;;;;4.80;1.83;;;23.40;99.90;;;;;;5090678;28;20483;-71
2022/10/06 12:57:14;;;;;;;4.13;1.70;;;23.60;99.50;;;;;;5099404;28;20446;-73
2022/10/06 12:59:41;;;;;;;13.37;1.90;;;23.70;99.00;;;;;;5111812;28;20442;-74
2022/10/06 13:02:10;;;;;;;7.40;2.30;;;23.80;99.50;;;;;;5110789;28;20471;-73
2022/10/06 13:04:39;;;;;;;4.33;2.03;;;23.30;99.10;;;;;;5091223;28;20459;-73
2022/10/06 13:07:14;;;;;;;4.17;1.60;;;22.90;98.90;;;;;;5099901;28;20534;-74
2022/10/06 13:09:41;;;;;;;5.30;1.37;;;22.90;99.10;;;;;;5093833;28;20478;-73
2022/10/06 13:12:28;;;;;;;7.13;2.20;;;22.40;98.90;;;;;;5099132;28;20466;-70